createdAt,value
2022-08-26T00:00:11.725Z,92.70
2022-08-26T00:02:40.126Z,92.80
2022-08-26T00:05:13.955Z,92.80
2022-08-26T00:07:44.252Z,92.80
2022-08-26T00:10:15.869Z,92.90
2022-08-26T00:12:48.257Z,92.90
2022-08-26T00:15:21.649Z,92.90
2022-08-26T00:17:57.388Z,93.00
2022-08-26T00:20:29.601Z,93.00
2022-08-26T00:22:59.772Z,93.00
2022-08-26T00:25:28.043Z,93.00
2022-08-26T00:27:56.494Z,93.00
2022-08-26T00:30:29.461Z,93.10
2022-08-26T00:33:00.535Z,93.10
2022-08-26T00:35:34.539Z,93.10
2022-08-26T00:38:04.209Z,93.20
2022-08-26T00:40:40.892Z,93.20
2022-08-26T00:43:09.490Z,93.20
2022-08-26T00:45:49.212Z,93.20
2022-08-26T00:48:19.983Z,93.30
2022-08-26T00:51:05.360Z,93.30
2022-08-26T00:53:36.877Z,93.40
2022-08-26T00:56:09.746Z,93.30
2022-08-26T00:58:43.365Z,93.40
2022-08-26T01:01:11.718Z,93.40
2022-08-26T01:03:42.059Z,93.50
2022-08-26T01:06:12.987Z,93.50
2022-08-26T01:08:41.682Z,93.60
2022-08-26T01:11:09.630Z,93.60
2022-08-26T01:13:38.474Z,93.70
2022-08-26T01:16:08.631Z,93.80
2022-08-26T01:18:36.280Z,93.90
2022-08-26T01:21:46.155Z,93.90
2022-08-26T01:24:14.091Z,94.10
2022-08-26T01:26:46.031Z,94.00
2022-08-26T01:29:18.073Z,94.10
2022-08-26T01:31:58.248Z,94.10
2022-08-26T01:34:32.395Z,94.20
2022-08-26T01:37:15.809Z,94.20
2022-08-26T01:39:48.890Z,94.20
2022-08-26T01:42:21.374Z,94.20
2022-08-26T01:45:06.193Z,94.30
2022-08-26T01:47:38.629Z,94.30
2022-08-26T01:50:12.591Z,94.30
2022-08-26T01:52:49.902Z,94.40
2022-08-26T01:55:32.074Z,94.40
2022-08-26T01:58:09.934Z,94.50
2022-08-26T02:00:38.507Z,94.50
2022-08-26T02:03:21.599Z,94.90
2022-08-26T02:05:58.232Z,94.60
2022-08-26T02:08:38.837Z,94.70
2022-08-26T02:11:07.032Z,94.30
2022-08-26T02:13:39.745Z,94.70
2022-08-26T02:16:08.485Z,94.80
2022-08-26T02:18:40.552Z,94.90
2022-08-26T02:21:09.986Z,95.00
2022-08-26T02:23:38.311Z,94.90
2022-08-26T02:26:19.329Z,95.00
2022-08-26T02:28:58.707Z,95.10
2022-08-26T02:31:26.152Z,95.20
2022-08-26T02:33:53.460Z,95.10
2022-08-26T02:36:22.657Z,95.30
2022-08-26T02:38:50.495Z,95.30
2022-08-26T02:41:19.389Z,95.40
2022-08-26T02:43:46.557Z,95.40
2022-08-26T02:46:23.096Z,95.50
2022-08-26T02:48:55.322Z,95.60
2022-08-26T02:51:22.661Z,95.40
2022-08-26T02:53:53.779Z,95.40
2022-08-26T02:56:23.208Z,95.60
2022-08-26T02:58:55.759Z,95.60
2022-08-26T03:01:26.250Z,95.70
2022-08-26T03:03:55.007Z,95.70
2022-08-26T03:06:26.319Z,95.80
2022-08-26T03:08:56.080Z,95.90
2022-08-26T03:11:32.749Z,95.90
2022-08-26T03:14:04.720Z,96.00
2022-08-26T03:16:40.398Z,96.10
2022-08-26T03:19:09.319Z,96.00
2022-08-26T03:21:40.695Z,96.00
2022-08-26T03:24:14.121Z,96.10
2022-08-26T03:26:52.502Z,96.20
2022-08-26T03:29:43.137Z,96.30
2022-08-26T03:32:14.318Z,96.40
2022-08-26T03:34:48.592Z,96.50
2022-08-26T03:37:16.413Z,96.60
2022-08-26T03:39:44.553Z,96.90
2022-08-26T03:42:13.156Z,96.70
2022-08-26T03:44:48.976Z,96.80
2022-08-26T03:47:25.395Z,96.80
2022-08-26T03:49:58.007Z,96.90
2022-08-26T03:52:26.676Z,97.00
2022-08-26T03:54:54.519Z,97.00
2022-08-26T03:57:25.562Z,97.00
2022-08-26T03:59:59.905Z,97.10
2022-08-26T04:02:28.162Z,97.20
2022-08-26T04:04:56.041Z,97.20
2022-08-26T04:07:26.402Z,97.50
2022-08-26T04:10:00.707Z,97.20
2022-08-26T04:12:30.703Z,97.30
2022-08-26T04:14:58.516Z,97.30
2022-08-26T04:17:31.661Z,97.30
2022-08-26T04:20:03.374Z,97.40
2022-08-26T04:22:31.709Z,97.40
2022-08-26T04:25:02.565Z,97.50
2022-08-26T04:27:33.988Z,97.50
2022-08-26T04:30:05.411Z,97.60
2022-08-26T04:32:37.577Z,97.60
2022-08-26T04:35:06.212Z,97.70
2022-08-26T04:37:37.687Z,97.80
2022-08-26T04:40:12.123Z,97.90
2022-08-26T04:42:43.099Z,97.80
2022-08-26T04:45:14.266Z,97.70
2022-08-26T04:47:45.450Z,97.90
2022-08-26T04:50:16.001Z,98.00
2022-08-26T04:52:48.861Z,98.10
2022-08-26T04:55:16.256Z,98.20
2022-08-26T04:57:47.459Z,98.30
2022-08-26T05:00:15.559Z,98.40
2022-08-26T05:02:51.509Z,98.40
2022-08-26T05:05:26.789Z,98.50
2022-08-26T05:07:54.553Z,98.60
2022-08-26T05:10:25.293Z,98.70
2022-08-26T05:13:00.425Z,98.80
2022-08-26T05:15:27.664Z,98.80
2022-08-26T05:18:07.544Z,98.80
2022-08-26T05:20:51.295Z,98.90
2022-08-26T05:23:24.914Z,99.00
2022-08-26T05:25:59.199Z,98.90
2022-08-26T05:28:30.416Z,99.00
2022-08-26T05:31:00.575Z,99.00
2022-08-26T05:33:27.757Z,99.00
2022-08-26T05:35:58.363Z,99.10
2022-08-26T05:38:30.138Z,99.10
2022-08-26T05:40:59.150Z,99.10
2022-08-26T05:43:26.812Z,99.10
2022-08-26T05:46:08.068Z,99.10
2022-08-26T05:48:39.031Z,99.10
2022-08-26T05:51:13.070Z,99.10
2022-08-26T05:53:54.614Z,99.10
2022-08-26T05:56:27.925Z,99.10
2022-08-26T05:58:59.795Z,99.10
2022-08-26T06:01:28.660Z,99.10
2022-08-26T06:04:01.847Z,99.10
2022-08-26T06:06:43.032Z,99.10
2022-08-26T06:09:17.453Z,99.10
2022-08-26T06:11:45.495Z,99.00
2022-08-26T06:14:19.796Z,99.00
2022-08-26T06:16:47.597Z,99.00
2022-08-26T06:19:15.842Z,99.00
2022-08-26T06:21:51.377Z,99.00
2022-08-26T06:24:44.331Z,99.00
2022-08-26T06:27:15.338Z,98.90
2022-08-26T06:29:42.958Z,98.90
2022-08-26T06:32:10.376Z,98.90
2022-08-26T06:34:38.926Z,98.90
2022-08-26T06:37:07.577Z,98.80
2022-08-26T06:39:35.137Z,98.80
2022-08-26T06:42:03.374Z,98.70
2022-08-26T06:44:33.540Z,98.70
2022-08-26T06:47:04.736Z,98.70
2022-08-26T06:49:32.280Z,99.00
2022-08-26T06:51:59.640Z,98.70
2022-08-26T06:54:31.908Z,98.70
2022-08-26T06:56:59.817Z,98.70
2022-08-26T06:59:27.263Z,98.70
2022-08-26T07:01:55.166Z,98.60
2022-08-26T07:04:28.084Z,98.70
2022-08-26T07:06:56.034Z,98.70
2022-08-26T07:09:26.166Z,98.70
2022-08-26T07:11:57.137Z,98.70
2022-08-26T07:14:26.303Z,98.70
2022-08-26T07:16:54.369Z,98.70
2022-08-26T07:19:30.657Z,98.70
2022-08-26T07:22:06.380Z,98.70
2022-08-26T07:24:39.286Z,98.70
2022-08-26T07:27:13.062Z,98.60
2022-08-26T07:29:42.644Z,98.50
2022-08-26T07:32:14.653Z,98.40
2022-08-26T07:34:42.607Z,98.60
2022-08-26T07:37:10.179Z,98.20
2022-08-26T07:39:37.916Z,98.30
2022-08-26T07:42:09.882Z,98.00
2022-08-26T07:44:38.027Z,97.70
2022-08-26T07:47:19.400Z,97.40
2022-08-26T07:49:55.057Z,97.00
2022-08-26T07:52:28.751Z,96.70
2022-08-26T07:54:58.434Z,96.60
2022-08-26T07:57:26.965Z,96.40
2022-08-26T07:59:55.532Z,96.20
2022-08-26T08:02:24.299Z,96.20
2022-08-26T08:04:53.490Z,96.20
2022-08-26T08:07:21.488Z,96.20
2022-08-26T08:10:09.933Z,96.20
2022-08-26T08:12:41.046Z,96.00
2022-08-26T08:15:09.615Z,95.70
2022-08-26T08:17:37.351Z,95.60
2022-08-26T08:20:05.736Z,95.50
2022-08-26T08:22:33.395Z,95.40
2022-08-26T08:25:00.705Z,95.40
2022-08-26T08:27:33.197Z,95.30
2022-08-26T08:30:05.859Z,95.40
2022-08-26T08:32:33.594Z,95.20
2022-08-26T08:35:01.999Z,95.10
2022-08-26T08:37:38.370Z,95.00
2022-08-26T08:40:08.222Z,95.00
2022-08-26T08:45:37.789Z,94.60
2022-08-26T08:48:29.484Z,94.30
2022-08-26T08:51:21.391Z,94.10
2022-08-26T08:53:57.090Z,94.20
2022-08-26T08:56:39.468Z,94.20
2022-08-26T08:59:24.733Z,93.90
2022-08-26T09:01:52.294Z,93.60
2022-08-26T09:04:55.335Z,93.60
2022-08-26T09:07:48.338Z,93.50
2022-08-26T09:10:18.811Z,93.10
2022-08-26T09:12:48.290Z,93.10
2022-08-26T09:15:41.603Z,92.80
2022-08-26T09:18:23.678Z,92.80
2022-08-26T09:21:03.558Z,93.00
2022-08-26T09:23:33.912Z,93.00
2022-08-26T09:26:18.483Z,92.50
2022-08-26T09:28:49.513Z,92.20
2022-08-26T09:31:25.500Z,92.10
2022-08-26T09:34:17.414Z,92.20
2022-08-26T09:36:51.912Z,92.10
2022-08-26T09:39:27.570Z,92.00
2022-08-26T09:42:17.310Z,91.90
2022-08-26T09:44:54.963Z,92.20
2022-08-26T09:47:37.464Z,91.80
2022-08-26T09:50:12.649Z,91.80
2022-08-26T09:52:46.494Z,91.50
2022-08-26T09:55:21.664Z,91.60
2022-08-26T09:58:03.596Z,91.70
2022-08-26T10:00:41.470Z,91.90
2022-08-26T10:03:15.546Z,92.00
2022-08-26T10:05:56.738Z,92.10
2022-08-26T10:08:34.142Z,92.10
2022-08-26T10:11:21.785Z,92.20
2022-08-26T10:14:03.579Z,92.30
2022-08-26T10:16:41.200Z,92.30
2022-08-26T10:19:22.773Z,92.30
2022-08-26T10:21:59.144Z,92.40
2022-08-26T10:24:40.475Z,92.30
2022-08-26T10:27:34.924Z,92.20
2022-08-26T10:30:12.838Z,92.10
2022-08-26T10:32:56.272Z,92.20
2022-08-26T10:35:27.896Z,92.10
2022-08-26T10:38:08.386Z,92.20
2022-08-26T10:40:55.601Z,92.40
2022-08-26T10:43:37.165Z,92.20
2022-08-26T10:49:00.362Z,90.90
2022-08-26T10:51:36.744Z,91.30
2022-08-26T10:54:21.718Z,91.10
2022-08-26T10:57:11.226Z,90.90
2022-08-26T10:59:59.543Z,90.70
2022-08-26T11:02:47.582Z,90.70
2022-08-26T11:05:22.582Z,90.90
2022-08-26T11:07:56.363Z,90.70
2022-08-26T11:10:24.378Z,90.70
2022-08-26T11:13:04.634Z,90.70
2022-08-26T11:15:38.982Z,90.50
2022-08-26T11:18:37.170Z,90.60
2022-08-26T11:21:47.794Z,90.80
2022-08-26T11:24:46.774Z,90.60
2022-08-26T11:27:35.938Z,90.30
2022-08-26T11:30:21.429Z,90.70
2022-08-26T11:32:54.118Z,90.80
2022-08-26T11:35:24.790Z,90.60
2022-08-26T11:38:18.561Z,90.10
2022-08-26T11:41:09.040Z,88.90
2022-08-26T11:43:39.656Z,89.30
2022-08-26T11:46:13.409Z,89.40
2022-08-26T11:48:43.567Z,89.40
2022-08-26T11:51:32.035Z,89.50
2022-08-26T11:54:10.547Z,89.60
2022-08-26T11:56:46.124Z,89.00
2022-08-26T11:59:38.931Z,89.50
2022-08-26T12:02:15.686Z,89.20
2022-08-26T12:04:52.013Z,88.50
2022-08-26T12:07:27.849Z,87.70
2022-08-26T12:10:02.318Z,88.00
2022-08-26T12:12:42.729Z,87.30
2022-08-26T12:15:13.070Z,87.00
2022-08-26T12:17:41.078Z,87.10
2022-08-26T12:20:19.572Z,86.10
2022-08-26T12:22:48.085Z,86.50
2022-08-26T12:25:24.156Z,86.50
2022-08-26T12:27:54.034Z,86.90
2022-08-26T12:30:26.198Z,86.40
2022-08-26T12:33:23.007Z,87.10
2022-08-26T12:35:56.769Z,86.70
2022-08-26T12:38:30.164Z,86.20
2022-08-26T12:40:57.932Z,86.70
2022-08-26T12:43:47.868Z,86.70
2022-08-26T12:46:24.820Z,86.80
2022-08-26T12:48:53.198Z,87.00
2022-08-26T12:51:29.305Z,86.90
2022-08-26T12:53:58.312Z,86.60
2022-08-26T12:56:43.361Z,86.20
2022-08-26T12:59:24.633Z,86.40
2022-08-26T13:01:52.661Z,85.80
2022-08-26T13:04:39.124Z,86.10
2022-08-26T13:07:16.461Z,86.80
2022-08-26T13:09:53.330Z,87.00
2022-08-26T13:12:37.684Z,86.40
2022-08-26T13:15:10.102Z,85.90
2022-08-26T13:17:40.466Z,85.70
2022-08-26T13:20:08.335Z,85.80
2022-08-26T13:22:42.511Z,86.00
2022-08-26T13:25:14.608Z,85.80
2022-08-26T13:27:46.996Z,86.10
2022-08-26T13:30:15.592Z,86.90
2022-08-26T13:32:44.140Z,87.50
2022-08-26T13:35:11.955Z,86.50
2022-08-26T13:37:42.223Z,86.90
2022-08-26T13:40:10.405Z,86.40
2022-08-26T13:42:37.858Z,85.60
2022-08-26T13:45:17.397Z,86.00
2022-08-26T13:47:44.916Z,85.60
2022-08-26T13:50:12.535Z,85.40
2022-08-26T13:52:43.745Z,85.60
2022-08-26T13:55:11.322Z,85.20
2022-08-26T13:57:38.811Z,84.90
2022-08-26T14:00:10.981Z,84.60
2022-08-26T14:02:42.369Z,84.90
2022-08-26T14:05:14.849Z,85.20
2022-08-26T14:07:45.336Z,86.40
2022-08-26T14:10:13.271Z,86.80
2022-08-26T14:12:40.840Z,86.50
2022-08-26T14:15:09.065Z,86.30
2022-08-26T14:17:36.480Z,86.20
2022-08-26T14:20:08.139Z,85.80
2022-08-26T14:22:40.542Z,85.80
2022-08-26T14:25:14.993Z,85.90
2022-08-26T14:27:46.477Z,85.20
2022-08-26T14:30:17.882Z,85.20
2022-08-26T14:32:51.524Z,84.70
2022-08-26T14:35:28.723Z,85.10
2022-08-26T14:37:57.006Z,85.20
2022-08-26T14:40:26.989Z,85.10
2022-08-26T14:42:55.185Z,85.40
2022-08-26T14:45:27.789Z,85.80
2022-08-26T14:47:57.241Z,86.00
2022-08-26T14:50:26.437Z,85.90
2022-08-26T15:33:22.695Z,83.50
2022-08-26T15:35:54.460Z,84.20
2022-08-26T15:38:25.428Z,84.30
2022-08-26T15:40:53.714Z,84.20
2022-08-26T15:43:29.033Z,84.30
2022-08-26T15:46:04.427Z,84.60
2022-08-26T15:48:32.117Z,84.70
2022-08-26T15:51:01.816Z,84.50
2022-08-26T15:53:32.270Z,85.20
2022-08-26T15:56:01.165Z,84.60
2022-08-26T15:58:30.000Z,83.90
2022-08-26T16:01:00.975Z,83.70
2022-08-26T16:03:28.638Z,83.30
2022-08-26T16:05:55.961Z,83.40
2022-08-26T16:08:23.292Z,83.60
2022-08-26T16:10:51.572Z,83.90
2022-08-26T16:13:20.458Z,84.20
2022-08-26T16:15:48.640Z,84.60
2022-08-26T16:18:16.913Z,84.00
2022-08-26T16:21:12.879Z,83.10
2022-08-26T16:23:38.658Z,82.40
2022-08-26T16:26:20.309Z,82.30
2022-08-26T16:28:47.954Z,82.30
2022-08-26T16:31:15.833Z,82.40
2022-08-26T16:33:43.131Z,83.30
2022-08-26T16:36:11.202Z,83.90
2022-08-26T16:38:39.415Z,83.40
2022-08-26T16:41:07.448Z,83.30
2022-08-26T16:43:35.160Z,84.10
2022-08-26T16:46:02.502Z,83.50
2022-08-26T16:48:29.845Z,83.40
2022-08-26T16:50:57.107Z,83.60
2022-08-26T16:53:24.487Z,83.10
2022-08-26T16:55:51.980Z,84.00
2022-08-26T16:58:22.135Z,83.90
2022-08-26T17:00:49.988Z,84.10
2022-08-26T17:03:17.560Z,84.00
2022-08-26T17:05:45.556Z,83.90
2022-08-26T17:08:16.356Z,84.20
2022-08-26T17:10:55.523Z,84.40
2022-08-26T17:13:34.790Z,84.70
2022-08-26T17:16:04.401Z,85.20
2022-08-26T17:18:33.076Z,85.10
2022-08-26T17:23:36.451Z,83.40
2022-08-26T17:26:04.628Z,84.10
2022-08-26T17:28:36.178Z,84.50
2022-08-26T17:31:09.318Z,84.90
2022-08-26T17:33:37.330Z,85.40
2022-08-26T17:36:09.756Z,85.90
2022-08-26T17:38:38.469Z,86.40
2022-08-26T17:41:12.960Z,86.80
2022-08-26T17:43:41.096Z,87.30
2022-08-26T17:46:10.502Z,87.60
2022-08-26T17:48:39.625Z,88.10
2022-08-26T17:51:09.329Z,88.60
2022-08-26T17:53:37.444Z,89.00
2022-08-26T17:56:10.348Z,89.50
2022-08-26T17:58:48.196Z,90.10
2022-08-26T18:01:20.086Z,90.20
2022-08-26T18:03:47.574Z,90.40
2022-08-26T18:06:16.233Z,90.60
2022-08-26T18:08:45.208Z,90.90
2022-08-26T18:11:15.509Z,91.00
2022-08-26T18:13:47.053Z,91.30
2022-08-26T18:16:16.590Z,91.30
2022-08-26T18:18:44.823Z,91.60
2022-08-26T18:21:27.212Z,91.70
2022-08-26T18:23:54.966Z,91.90
2022-08-26T18:26:29.599Z,92.00
2022-08-26T18:29:02.063Z,92.20
2022-08-26T18:31:30.225Z,92.40
2022-08-26T18:34:04.994Z,92.50
2022-08-26T18:36:35.295Z,92.80
2022-08-26T18:39:05.111Z,92.90
2022-08-26T18:41:37.750Z,93.00
2022-08-26T18:44:08.490Z,93.20
2022-08-26T18:46:40.526Z,93.30
2022-08-26T18:49:14.547Z,93.50
2022-08-26T18:51:43.096Z,93.70
2022-08-26T18:54:11.909Z,93.80
2022-08-26T18:56:42.536Z,93.90
2022-08-26T18:59:14.589Z,94.10
2022-08-26T19:01:42.810Z,94.20
2022-08-26T19:04:14.736Z,94.30
2022-08-26T19:06:44.250Z,94.40
2022-08-26T19:09:14.714Z,94.50
2022-08-26T19:11:46.400Z,94.70
2022-08-26T19:14:15.740Z,94.80
2022-08-26T19:16:45.008Z,94.90
2022-08-26T19:19:12.285Z,95.00
2022-08-26T19:21:40.195Z,95.10
2022-08-26T19:24:15.612Z,95.20
2022-08-26T19:26:44.533Z,95.40
2022-08-26T19:29:12.648Z,95.30
2022-08-26T19:31:39.955Z,95.40
2022-08-26T19:34:09.812Z,95.50
2022-08-26T19:36:37.927Z,95.60
2022-08-26T19:39:08.907Z,95.70
2022-08-26T19:41:38.542Z,95.80
2022-08-26T19:44:13.257Z,95.90
2022-08-26T19:46:40.739Z,96.10
2022-08-26T19:49:07.959Z,96.10
2022-08-26T19:51:36.675Z,96.10
2022-08-26T19:54:04.468Z,96.20
2022-08-26T19:56:32.150Z,96.30
2022-08-26T19:58:59.510Z,96.40
2022-08-26T20:01:26.693Z,96.40
2022-08-26T20:06:21.074Z,96.50
2022-08-26T20:08:50.736Z,96.60
2022-08-26T20:11:19.437Z,96.70
2022-08-26T20:13:48.732Z,96.80
2022-08-26T20:16:17.081Z,96.90
2022-08-26T20:19:04.214Z,97.00
2022-08-26T20:21:35.805Z,97.10
2022-08-26T20:24:08.709Z,97.10
2022-08-26T20:26:38.648Z,97.20
2022-08-26T20:29:07.287Z,97.30
2022-08-26T20:31:35.538Z,97.40
2022-08-26T20:34:03.076Z,97.50
2022-08-26T20:36:30.421Z,97.60
2022-08-26T20:38:58.667Z,97.60
2022-08-26T20:41:26.722Z,97.70
2022-08-26T20:43:54.960Z,97.80
2022-08-26T20:46:24.858Z,97.90
2022-08-26T20:48:53.722Z,98.00
2022-08-26T20:51:23.163Z,98.10
2022-08-26T20:53:51.245Z,98.10
2022-08-26T20:56:23.852Z,98.50
2022-08-26T20:58:56.385Z,98.20
2022-08-26T21:01:27.107Z,98.30
2022-08-26T21:03:56.013Z,98.40
2022-08-26T21:06:23.868Z,98.50
2022-08-26T21:08:51.246Z,98.50
2022-08-26T21:11:18.563Z,98.60
2022-08-26T21:14:04.375Z,98.70
2022-08-26T21:16:32.425Z,98.70
2022-08-26T21:19:00.562Z,98.80
2022-08-26T21:21:28.592Z,98.90
2022-08-26T21:23:56.529Z,99.00
2022-08-26T21:26:24.437Z,99.00
2022-08-26T21:28:52.028Z,99.10
2022-08-26T21:31:22.685Z,99.10
2022-08-26T21:33:51.216Z,99.20
2022-08-26T21:36:19.595Z,99.30
2022-08-26T21:38:47.172Z,99.30
2022-08-26T21:41:19.535Z,99.30
2022-08-26T21:43:48.731Z,99.40
2022-08-26T21:46:19.541Z,99.40
2022-08-26T21:48:53.371Z,99.50
2022-08-26T21:51:23.182Z,99.50
2022-08-26T21:53:53.079Z,99.60
2022-08-26T21:56:21.462Z,99.60
2022-08-26T21:58:48.855Z,99.70
2022-08-26T22:01:22.639Z,99.70
2022-08-26T22:03:52.612Z,99.80
2022-08-26T22:06:22.952Z,99.80
2022-08-26T22:08:50.944Z,99.90
2022-08-26T22:11:18.960Z,99.90
2022-08-26T22:13:47.142Z,99.90
2022-08-26T22:16:15.073Z,99.90
2022-08-26T22:18:46.057Z,99.90
2022-08-26T22:21:17.277Z,99.90
2022-08-26T22:23:44.863Z,99.90
2022-08-26T22:26:14.540Z,99.90
2022-08-26T22:28:45.354Z,99.90
2022-08-26T22:31:19.081Z,99.90
2022-08-26T22:33:57.621Z,99.90
2022-08-26T22:36:27.425Z,99.90
2022-08-26T22:38:56.196Z,99.90
2022-08-26T22:41:26.142Z,99.90
2022-08-26T22:43:53.499Z,99.90
2022-08-26T22:46:25.211Z,99.90
2022-08-26T22:48:54.211Z,99.90
2022-08-26T22:51:23.282Z,99.90
2022-08-26T22:53:50.507Z,99.90
2022-08-26T22:56:19.294Z,99.90
2022-08-26T22:58:50.748Z,99.90
2022-08-26T23:01:17.898Z,99.90
2022-08-26T23:03:46.352Z,99.90
2022-08-26T23:06:13.943Z,99.90
2022-08-26T23:08:42.197Z,99.90
2022-08-26T23:11:11.183Z,99.90
2022-08-26T23:13:38.993Z,99.90
2022-08-26T23:16:10.284Z,99.90
2022-08-26T23:18:38.767Z,99.90
2022-08-26T23:21:06.766Z,99.90
2022-08-26T23:23:37.522Z,99.90
2022-08-26T23:26:06.446Z,99.90
2022-08-26T23:28:35.110Z,99.90
2022-08-26T23:31:02.395Z,99.90
2022-08-26T23:33:49.836Z,99.90
2022-08-26T23:36:18.527Z,99.90
2022-08-26T23:38:52.690Z,99.90
2022-08-26T23:41:22.570Z,99.90
2022-08-26T23:43:53.406Z,99.90
2022-08-26T23:46:21.019Z,99.90
2022-08-26T23:48:48.237Z,99.90
2022-08-26T23:51:34.345Z,99.90
2022-08-26T23:54:01.619Z,99.90
2022-08-26T23:56:29.372Z,99.90
2022-08-26T23:58:56.675Z,99.90
